!!! Benutzen Sie für Ihre Flugvorbereitung die offiziellen Quellen !!!

Metar:

EDQM 221750Z 04004KT 350V080 CAVOK 20/06 Q1014

QNH: 1014
Temperatur: 20
Dew Point : 6

 

METAR (decoded)